createdAt,value
2019-03-09T00:02:32.801Z,59.42
2019-03-09T00:07:37.024Z,59.42
2019-03-09T00:12:41.411Z,59.29
2019-03-09T00:17:45.696Z,59.82
2019-03-09T00:22:55.320Z,59.82
2019-03-09T00:28:14.985Z,59.94
2019-03-09T00:33:19.081Z,59.89
2019-03-09T00:38:23.559Z,59.51
2019-03-09T00:43:27.917Z,59.51
2019-03-09T00:48:32.195Z,60.29
2019-03-09T00:53:36.481Z,60.29
2019-03-09T00:58:40.829Z,60.52
2019-03-09T01:03:45.098Z,60.53
2019-03-09T01:08:49.341Z,60.53
2019-03-09T01:13:53.586Z,60.46
2019-03-09T01:18:57.669Z,60.83
2019-03-09T01:24:01.945Z,61.18
2019-03-09T01:29:06.097Z,61.18
2019-03-09T01:34:10.213Z,61.48
2019-03-09T01:39:14.454Z,61.64
2019-03-09T01:44:18.803Z,61.92
2019-03-09T01:49:23.109Z,61.99
2019-03-09T01:54:27.405Z,61.87
2019-03-09T01:59:31.556Z,61.94
2019-03-09T02:04:35.783Z,61.94
2019-03-09T02:09:39.879Z,62.03
2019-03-09T02:14:44.138Z,62.03
2019-03-09T02:19:48.331Z,62.02
2019-03-09T02:24:52.594Z,61.87
2019-03-09T02:29:56.838Z,62.23
2019-03-09T02:35:01.104Z,61.98
2019-03-09T02:40:09.275Z,61.97
2019-03-09T02:45:14.937Z,61.97
2019-03-09T02:50:19.064Z,62.14
2019-03-09T02:55:23.316Z,62.14
2019-03-09T03:00:29.102Z,62.17
2019-03-09T03:05:33.206Z,62.11
2019-03-09T03:10:37.546Z,61.46
2019-03-09T03:15:41.874Z,61.46
2019-03-09T03:20:45.996Z,62.27
2019-03-09T03:25:50.270Z,61.75
2019-03-09T03:30:54.596Z,61.75
2019-03-09T03:35:58.649Z,62.23
2019-03-09T03:41:02.991Z,61.97
2019-03-09T03:46:07.024Z,62.29
2019-03-09T03:51:11.183Z,62.29
2019-03-09T03:56:15.327Z,62.17
2019-03-09T04:01:19.625Z,62.17
2019-03-09T04:06:24.354Z,62.36
2019-03-09T04:11:28.681Z,62.43
2019-03-09T04:16:32.885Z,62.42
2019-03-09T04:21:37.031Z,62.42
2019-03-09T04:26:41.291Z,62.42
2019-03-09T04:31:45.544Z,62.08
2019-03-09T04:36:57.656Z,62.08
2019-03-09T04:42:01.795Z,62.33
2019-03-09T04:47:06.034Z,62.23
2019-03-09T04:52:10.263Z,62.25
2019-03-09T04:57:14.680Z,62.53
2019-03-09T05:02:18.935Z,61.75
2019-03-09T05:07:30.047Z,62.08
2019-03-09T05:12:34.189Z,61.89
2019-03-09T05:17:38.466Z,61.53
2019-03-09T05:22:42.731Z,61.86
2019-03-09T05:27:46.993Z,61.81
2019-03-09T05:32:51.142Z,61.53
2019-03-09T05:37:55.331Z,61.53
2019-03-09T05:42:59.613Z,61.91
2019-03-09T05:48:03.984Z,61.91
2019-03-09T05:53:13.567Z,61.45
2019-03-09T05:58:17.885Z,61.49
2019-03-09T06:03:29.779Z,61.38
2019-03-09T06:08:34.040Z,61.47
2019-03-09T06:13:38.451Z,61.22
2019-03-09T06:18:42.707Z,61.07
2019-03-09T06:23:47.038Z,61.88
2019-03-09T06:28:51.136Z,61.62
2019-03-09T06:33:56.899Z,61.62
2019-03-09T06:39:07.738Z,61.42
2019-03-09T06:44:11.993Z,61.35
2019-03-09T06:49:16.190Z,61.37
2019-03-09T06:54:20.469Z,61.27
2019-03-09T06:59:24.706Z,61.40
2019-03-09T07:04:29.003Z,61.40
2019-03-09T07:09:33.140Z,61.39
2019-03-09T07:15:20.539Z,61.90
2019-03-09T07:20:24.816Z,61.33
2019-03-09T07:25:31.959Z,61.79
2019-03-09T07:30:36.435Z,61.61
2019-03-09T07:35:40.789Z,62.12
2019-03-09T07:40:44.873Z,61.92
2019-03-09T07:45:49.338Z,61.80
2019-03-09T07:50:53.458Z,61.26
2019-03-09T07:55:57.612Z,61.41
2019-03-09T08:01:01.935Z,60.74
2019-03-09T08:06:14.479Z,59.82
2019-03-09T08:11:31.353Z,57.24
2019-03-09T08:16:35.911Z,57.24
2019-03-09T08:27:52.874Z,59.04
2019-03-09T08:54:59.462Z,58.06
2019-03-09T09:00:17.770Z,57.84
2019-03-09T09:15:57.648Z,58.16
2019-03-09T09:37:39.092Z,57.23
2019-03-09T09:42:43.407Z,57.31
2019-03-09T09:47:47.729Z,58.19
2019-03-09T09:52:51.966Z,57.83
2019-03-09T09:57:56.201Z,57.83
2019-03-09T10:03:00.606Z,58.21
2019-03-09T10:08:04.993Z,58.21
2019-03-09T10:13:09.139Z,57.24
2019-03-09T10:18:13.507Z,57.49
2019-03-09T10:23:17.699Z,57.04
2019-03-09T10:28:21.998Z,57.28
2019-03-09T10:33:26.241Z,57.39
2019-03-09T10:38:30.462Z,57.39
2019-03-09T10:43:34.792Z,57.04
2019-03-09T10:48:39.177Z,57.04
2019-03-09T10:53:43.278Z,56.99
2019-03-09T10:58:47.595Z,57.14
2019-03-09T11:03:51.938Z,57.14
2019-03-09T11:09:01.657Z,57.07
2019-03-09T11:14:06.077Z,57.32
2019-03-09T11:19:10.438Z,57.58
2019-03-09T11:24:14.645Z,57.86
2019-03-09T11:29:18.734Z,57.86
2019-03-09T11:34:27.534Z,56.88
2019-03-09T11:39:32.293Z,58.74
2019-03-09T11:44:36.913Z,58.38
2019-03-09T11:49:41.351Z,59.00
2019-03-09T11:54:45.817Z,59.00
2019-03-09T11:59:50.393Z,59.33
2019-03-09T12:04:54.811Z,58.58
2019-03-09T12:09:59.080Z,57.87
2019-03-09T12:15:15.919Z,57.20
2019-03-09T12:21:07.449Z,58.19
2019-03-09T12:26:14.292Z,56.58
2019-03-09T12:31:27.912Z,56.58
2019-03-09T12:36:32.494Z,57.38
2019-03-09T12:41:37.402Z,57.71
2019-03-09T12:46:41.998Z,57.34
2019-03-09T12:51:46.346Z,57.34
2019-03-09T12:56:50.751Z,57.20
2019-03-09T13:01:57.536Z,57.20
2019-03-09T13:07:02.158Z,56.86
2019-03-09T13:12:08.748Z,56.91
2019-03-09T13:17:15.353Z,56.91
2019-03-09T13:22:19.674Z,57.46
2019-03-09T13:27:24.082Z,57.46
2019-03-09T13:32:28.435Z,56.95
2019-03-09T13:37:32.810Z,57.15
2019-03-09T13:42:37.351Z,57.35
2019-03-09T13:47:41.731Z,57.35
2019-03-09T13:52:45.989Z,57.38
2019-03-09T13:57:50.141Z,57.64
2019-03-09T14:02:54.428Z,57.48
2019-03-09T14:07:58.762Z,58.00
2019-03-09T14:13:03.107Z,57.71
2019-03-09T14:18:07.523Z,57.71
2019-03-09T14:23:11.853Z,57.34
2019-03-09T14:28:16.176Z,56.89
2019-03-09T14:33:23.204Z,56.89
2019-03-09T14:38:41.158Z,57.10
2019-03-09T14:43:48.818Z,57.24
2019-03-09T14:48:53.452Z,58.83
2019-03-09T14:53:58.183Z,58.89
2019-03-09T15:00:21.084Z,58.30
2019-03-09T15:05:27.830Z,58.10
2019-03-09T15:16:12.667Z,58.18
2019-03-09T15:21:17.226Z,58.25
2019-03-09T15:26:21.594Z,58.63
2019-03-09T15:31:26.177Z,57.90
2019-03-09T15:36:33.223Z,58.32
2019-03-09T15:41:41.772Z,58.32
2019-03-09T15:46:48.149Z,58.31
2019-03-09T16:03:50.197Z,58.16
2019-03-09T16:08:55.202Z,59.19
2019-03-09T16:13:59.541Z,58.88
2019-03-09T16:24:44.262Z,58.69
2019-03-09T16:29:52.944Z,58.69
2019-03-09T16:35:05.925Z,58.94
2019-03-09T16:40:13.894Z,58.90
2019-03-09T16:45:33.103Z,59.29
2019-03-09T16:50:33.504Z,59.28
2019-03-09T16:55:37.865Z,59.24
2019-03-09T17:00:42.235Z,58.72
2019-03-09T17:05:57.698Z,58.44
2019-03-09T17:10:52.912Z,58.44
2019-03-09T17:16:00.307Z,57.59
2019-03-09T17:21:04.610Z,58.18
2019-03-09T17:26:08.851Z,58.25
2019-03-09T17:31:13.083Z,58.62
2019-03-09T17:36:17.431Z,58.36
2019-03-09T17:41:21.681Z,58.22
2019-03-09T17:46:26.059Z,58.29
2019-03-09T17:52:51.357Z,58.01
2019-03-09T17:57:19.633Z,58.01
2019-03-09T18:02:24.962Z,57.32
2019-03-09T18:07:33.833Z,57.46
2019-03-09T18:12:42.219Z,57.46
2019-03-09T18:17:46.529Z,57.07
2019-03-09T18:23:00.696Z,57.64
2019-03-09T18:28:05.196Z,57.30
2019-03-09T18:33:10.972Z,57.74
2019-03-09T18:38:18.065Z,57.98
2019-03-09T18:48:46.492Z,56.98
2019-03-09T18:53:50.928Z,56.86
2019-03-09T18:58:56.279Z,56.55
2019-03-09T19:04:02.177Z,56.32
2019-03-09T19:09:09.567Z,56.62
2019-03-09T19:14:14.209Z,55.74
2019-03-09T19:19:18.985Z,56.47
2019-03-09T19:24:25.245Z,56.18
2019-03-09T19:29:29.708Z,56.38
2019-03-09T19:34:34.665Z,56.62
2019-03-09T19:39:39.094Z,56.15
2019-03-09T19:44:43.650Z,55.82
2019-03-09T20:28:28.727Z,55.01
2019-03-09T20:33:33.655Z,54.62
2019-03-09T20:39:00.206Z,53.61
2019-03-09T20:44:20.944Z,54.25
2019-03-09T20:49:30.705Z,52.27
2019-03-09T20:59:57.401Z,53.64
2019-03-09T21:05:01.648Z,53.64
2019-03-09T21:10:07.646Z,53.43
2019-03-09T21:15:11.887Z,54.46
2019-03-09T21:20:16.122Z,54.32
2019-03-09T21:25:20.280Z,54.43
2019-03-09T21:30:24.578Z,52.52
2019-03-09T21:35:28.710Z,52.70
2019-03-09T21:40:32.846Z,53.08
2019-03-09T21:45:36.923Z,53.08
2019-03-09T21:50:41.140Z,52.16
2019-03-09T21:55:45.957Z,52.40
2019-03-09T22:00:50.288Z,52.40
2019-03-09T22:05:54.437Z,53.56
2019-03-09T22:10:58.597Z,52.21
2019-03-09T22:16:02.752Z,53.19
2019-03-09T22:21:06.781Z,53.42
2019-03-09T22:26:11.021Z,53.42
2019-03-09T22:31:15.086Z,53.36
2019-03-09T22:36:19.323Z,52.95
2019-03-09T22:41:23.405Z,52.95
2019-03-09T22:46:27.470Z,54.35
2019-03-09T22:51:31.585Z,54.20
2019-03-09T22:56:35.692Z,54.60
2019-03-09T23:01:39.930Z,54.63
2019-03-09T23:06:44.240Z,54.23
2019-03-09T23:11:48.740Z,54.23
2019-03-09T23:16:53.106Z,54.60
2019-03-09T23:21:57.523Z,54.96
2019-03-09T23:27:01.844Z,54.41
2019-03-09T23:32:06.216Z,55.17
2019-03-09T23:37:10.601Z,54.99
2019-03-09T23:42:15.015Z,55.23
2019-03-09T23:47:20.299Z,55.52
2019-03-09T23:52:24.737Z,55.52
2019-03-09T23:57:29.310Z,55.61
